Time;durP1;ratioP1;P1;durP2;ratioP2;P2;SDS_P1;SDS_P2;PMS_P1;PMS_P2;Temp;Humidity;BMP_temperature;BMP_pressure;BME280_temperature;BME280_humidity;BME280_pressure;Samples;Min_cycle;Max_cycle;Signal;HPM_P1;HPM_P2
2022/07/29 00:04:59;;;;;;;4.25;1.95;;;15.40;5.30;;;;;;10480955;28;20590;-82
2022/07/29 00:10:21;;;;;;;4.53;2.30;;;15.30;1.00;;;;;;10482977;28;20198;-81
2022/07/29 00:15:42;;;;;;;3.33;1.90;;;15.20;3.30;;;;;;10480015;28;20469;-81
2022/07/29 00:21:03;;;;;;;3.10;2.15;;;15.20;1.00;;;;;;10479618;28;20515;-80
2022/07/29 00:26:27;;;;;;;5.80;1.65;;;15.10;1.00;;;;;;10465878;28;20234;-85
2022/07/29 00:31:49;;;;;;;3.72;1.95;;;15.10;1.00;;;;;;10507347;28;20366;-80
2022/07/29 00:37:10;;;;;;;4.00;1.88;;;15.00;1.00;;;;;;10480274;28;20197;-87
2022/07/29 00:42:44;;;;;;;3.85;1.63;;;15.00;2.30;;;;;;10479305;28;20260;-88
2022/07/29 00:48:06;;;;;;;9.10;2.10;;;15.00;7.60;;;;;;10464704;28;20267;-87
2022/07/29 00:53:28;;;;;;;3.38;1.67;;;14.90;1.00;;;;;;10465131;28;20206;-81
2022/07/29 00:58:51;;;;;;;4.60;1.95;;;14.90;1.00;;;;;;10453508;28;20202;-83
2022/07/29 01:04:13;;;;;;;2.25;1.30;;;14.90;12.70;;;;;;10471306;28;20241;-79
2022/07/29 01:09:36;;;;;;;3.55;1.98;;;14.80;7.90;;;;;;10476574;28;20213;-80
2022/07/29 01:14:59;;;;;;;5.22;2.42;;;14.80;3.70;;;;;;10477640;28;20287;-85
2022/07/29 01:20:32;;;;;;;3.42;2.13;;;14.70;1.00;;;;;;10478898;28;20473;-84
2022/07/29 01:26:14;;;;;;;4.30;2.45;;;14.60;8.80;;;;;;10463429;28;20253;-86
2022/07/29 01:31:52;;;;;;;4.90;2.17;;;14.50;10.50;;;;;;10476873;28;20202;-87
2022/07/29 01:37:26;;;;;;;3.58;2.17;;;14.50;1.00;;;;;;10450107;28;20191;-80
2022/07/29 01:42:55;;;;;;;3.92;2.10;;;14.40;1.00;;;;;;10435867;28;20205;-81
2022/07/29 01:48:22;;;;;;;4.80;2.00;;;14.30;1.50;;;;;;10435616;28;20197;-80
2022/07/29 01:54:13;;;;;;;4.63;2.13;;;14.30;2.50;;;;;;10435160;28;20203;-82
2022/07/29 01:59:36;;;;;;;4.03;1.70;;;14.20;14.10;;;;;;10435051;28;20207;-87
2022/07/29 02:05:17;;;;;;;3.50;1.70;;;14.20;25.00;;;;;;10473811;28;20229;-82
2022/07/29 02:10:40;;;;;;;3.47;2.03;;;14.20;26.30;;;;;;10490714;28;20270;-88
2022/07/29 02:16:04;;;;;;;3.88;2.00;;;14.10;26.40;;;;;;10475930;28;20559;-85
2022/07/29 02:21:27;;;;;;;2.85;1.75;;;14.10;35.30;;;;;;10481204;28;20202;-85
2022/07/29 02:26:51;;;;;;;3.42;2.25;;;14.10;42.20;;;;;;10484792;28;20230;-88
2022/07/29 02:32:14;;;;;;;3.33;2.00;;;14.10;31.40;;;;;;10484479;28;20359;-87
2022/07/29 02:37:37;;;;;;;2.70;1.70;;;14.10;33.30;;;;;;10512989;28;20219;-86
2022/07/29 02:42:59;;;;;;;2.90;1.83;;;14.10;31.00;;;;;;10470071;28;20286;-85
2022/07/29 02:48:37;;;;;;;4.07;2.08;;;14.10;33.10;;;;;;10484104;28;20541;-80
2022/07/29 02:54:04;;;;;;;2.13;1.60;;;14.00;48.60;;;;;;10469640;28;20197;-86
2022/07/29 02:59:30;;;;;;;3.72;2.25;;;14.10;46.50;;;;;;10441627;28;20205;-84
2022/07/29 03:04:52;;;;;;;3.00;2.00;;;14.00;55.80;;;;;;10451377;28;20494;-86
2022/07/29 03:10:14;;;;;;;3.30;2.05;;;14.00;64.80;;;;;;10468825;28;20206;-81
2022/07/29 03:15:36;;;;;;;4.18;2.05;;;14.00;61.00;;;;;;10468173;28;20283;-85
2022/07/29 03:20:58;;;;;;;6.43;2.35;;;14.00;66.00;;;;;;10482453;28;20198;-83
2022/07/29 03:26:19;;;;;;;3.45;2.03;;;14.00;71.30;;;;;;10482942;28;20225;-80
2022/07/29 03:31:40;;;;;;;6.50;2.05;;;14.10;76.80;;;;;;10468155;28;20228;-82
2022/07/29 03:37:11;;;;;;;3.03;2.33;;;14.10;90.60;;;;;;10483509;28;20536;-81
2022/07/29 03:42:35;;;;;;;3.63;2.22;;;14.20;96.90;;;;;;10468991;28;20224;-82
2022/07/29 03:48:05;;;;;;;3.92;2.28;;;14.20;99.90;;;;;;10453465;28;20400;-85
2022/07/29 03:53:26;;;;;;;4.63;2.17;;;14.40;99.90;;;;;;10480569;28;20436;-85
2022/07/29 03:58:51;;;;;;;3.00;1.90;;;14.50;99.90;;;;;;10456118;28;20594;-86
2022/07/29 04:04:13;;;;;;;3.17;2.33;;;14.50;99.90;;;;;;10475032;28;20275;-88
2022/07/29 04:09:34;;;;;;;4.65;2.58;;;14.60;99.90;;;;;;10480666;28;20198;-86
2022/07/29 04:14:55;;;;;;;2.67;2.40;;;14.70;99.90;;;;;;10497053;28;20287;-87
2022/07/29 04:20:18;;;;;;;3.05;2.13;;;14.80;99.90;;;;;;10480698;28;20378;-85
2022/07/29 04:25:41;;;;;;;3.45;2.47;;;14.90;99.90;;;;;;10480243;28;20218;-87
2022/07/29 04:31:02;;;;;;;3.90;2.30;;;15.00;99.90;;;;;;10455864;28;20199;-86
2022/07/29 04:36:23;;;;;;;7.25;2.95;;;15.20;99.90;;;;;;10465854;28;20232;-86
2022/07/29 04:41:45;;;;;;;12.80;4.85;;;15.20;99.90;;;;;;10480406;28;20189;-85
2022/07/29 04:47:08;;;;;;;9.82;3.95;;;15.40;99.90;;;;;;10479426;28;20217;-86
2022/07/29 04:52:30;;;;;;;5.25;2.50;;;15.50;99.90;;;;;;10479793;28;20218;-82
2022/07/29 04:57:51;;;;;;;4.13;2.60;;;15.60;99.90;;;;;;10462175;28;20245;-86
2022/07/29 05:03:13;;;;;;;2.97;2.10;;;15.70;99.90;;;;;;10466602;28;20281;-85
2022/07/29 05:08:34;;;;;;;1.77;1.65;;;15.90;99.90;;;;;;10478635;28;20273;-86
2022/07/29 05:13:55;;;;;;;4.72;1.98;;;16.00;99.90;;;;;;10477822;28;20236;-88
2022/07/29 05:19:17;;;;;;;2.53;1.60;;;16.10;99.90;;;;;;10478175;28;20386;-83
2022/07/29 05:24:39;;;;;;;2.60;1.70;;;16.20;99.90;;;;;;10478604;28;20217;-86
2022/07/29 05:30:00;;;;;;;2.42;1.65;;;16.40;99.90;;;;;;10476998;28;20194;-90
2022/07/29 05:35:22;;;;;;;2.88;1.80;;;16.60;99.90;;;;;;10467126;28;20534;-88
2022/07/29 05:40:43;;;;;;;1.85;0.95;;;16.70;99.90;;;;;;10478918;28;20237;-90
2022/07/29 05:46:04;;;;;;;2.15;1.20;;;16.90;99.90;;;;;;10478657;28;20403;-85
2022/07/29 05:51:26;;;;;;;2.47;1.20;;;17.10;39.90;;;;;;10477176;28;20528;-86
2022/07/29 05:56:47;;;;;;;2.45;0.90;;;17.30;1.80;;;;;;10473742;28;20208;-84
2022/07/29 06:02:08;;;;;;;2.85;1.10;;;17.40;1.00;;;;;;10473650;28;20241;-85
2022/07/29 06:07:30;;;;;;;3.72;1.23;;;17.60;1.00;;;;;;10485218;28;20230;-80
2022/07/29 06:12:52;;;;;;;1.92;0.90;;;17.80;1.00;;;;;;10498601;28;20237;-81
2022/07/29 06:18:13;;;;;;;1.00;0.65;;;17.80;1.00;;;;;;10490391;28;20213;-87
2022/07/29 06:23:34;;;;;;;1.33;0.80;;;18.00;1.00;;;;;;10486134;28;20200;-87
2022/07/29 06:28:56;;;;;;;3.30;1.00;;;18.10;1.00;;;;;;10484204;28;20200;-79
2022/07/29 06:34:18;;;;;;;3.10;0.70;;;18.10;1.00;;;;;;10481634;28;20343;-87
2022/07/29 06:39:40;;;;;;;1.00;0.63;;;18.10;1.00;;;;;;10470436;28;20222;-86
2022/07/29 06:45:02;;;;;;;1.60;0.80;;;18.10;1.00;;;;;;10500975;28;20230;-87
2022/07/29 06:50:26;;;;;;;2.25;0.93;;;18.40;1.00;;;;;;10469240;28;20200;-85
2022/07/29 06:55:51;;;;;;;2.47;0.80;;;;;;;;;;10481124;28;20499;-84
2022/07/29 07:01:12;;;;;;;3.50;1.00;;;;;;;;;;10453389;28;20191;-81
2022/07/29 07:06:35;;;;;;;1.65;0.70;;;20.90;41.60;;;;;;10483764;28;20212;-82
2022/07/29 07:11:56;;;;;;;1.20;0.80;;;21.10;99.90;;;;;;10483791;28;20243;-81
2022/07/29 07:17:37;;;;;;;1.65;0.90;;;21.70;99.90;;;;;;10478341;28;20494;-82
2022/07/29 07:29:23;;;;;;;4.10;0.90;;;22.40;1.00;;;;;;10435833;28;20228;-82
2022/07/29 07:34:44;;;;;;;1.38;0.60;;;23.50;1.00;;;;;;10446359;28;20196;-83
2022/07/29 07:40:07;;;;;;;1.25;0.73;;;23.80;26.60;;;;;;10435090;28;20368;-84
2022/07/29 07:45:28;;;;;;;2.45;0.93;;;23.30;1.00;;;;;;10435072;28;20290;-84
2022/07/29 07:50:50;;;;;;;2.00;0.85;;;23.10;1.00;;;;;;10420123;28;20446;-83
2022/07/29 07:56:11;;;;;;;1.75;1.00;;;23.30;1.00;;;;;;10426087;28;20231;-83
2022/07/29 08:01:33;;;;;;;2.03;0.80;;;23.90;99.90;;;;;;10434707;28;20264;-86
2022/07/29 08:06:54;;;;;;;6.90;0.80;;;23.60;1.00;;;;;;10449044;28;20227;-84
2022/07/29 08:12:16;;;;;;;4.22;1.48;;;23.60;1.00;;;;;;10434353;28;20239;-81
2022/07/29 08:17:37;;;;;;;3.22;1.10;;;23.90;1.00;;;;;;10433288;28;20210;-80
2022/07/29 08:22:59;;;;;;;2.25;1.00;;;24.50;1.00;;;;;;10433560;28;20247;-89
2022/07/29 08:28:20;;;;;;;2.05;1.20;;;25.20;1.00;;;;;;10419276;28;20236;-80
2022/07/29 08:33:42;;;;;;;2.88;0.90;;;25.40;99.90;;;;;;10432884;28;20204;-82
2022/07/29 08:39:04;;;;;;;0.73;0.70;;;25.70;87.40;;;;;;10398141;28;20201;-86
2022/07/29 08:44:26;;;;;;;2.58;2.13;;;25.90;1.00;;;;;;10430068;28;20307;-82
2022/07/29 08:49:48;;;;;;;2.10;1.30;;;26.30;1.00;;;;;;10405655;28;20443;-81
2022/07/29 08:55:10;;;;;;;2.40;0.90;;;;;;;;;;10407980;28;20203;-81
2022/07/29 09:00:31;;;;;;;2.35;1.05;;;26.80;1.00;;;;;;10469078;28;20213;-79
2022/07/29 09:05:53;;;;;;;7.65;1.80;;;26.60;1.00;;;;;;10405010;28;20304;-82
2022/07/29 09:11:15;;;;;;;1.42;0.82;;;27.00;1.00;;;;;;10391984;28;20272;-91
2022/07/29 09:16:47;;;;;;;3.67;1.80;;;27.40;1.00;;;;;;10418162;28;20502;-83
2022/07/29 09:22:30;;;;;;;2.47;1.13;;;27.90;1.00;;;;;;10430522;28;20201;-85
2022/07/29 09:27:52;;;;;;;3.97;1.08;;;;;;;;;;10416892;28;20230;-84
2022/07/29 09:33:13;;;;;;;22.85;4.10;;;28.60;99.90;;;;;;10430938;28;20395;-84
2022/07/29 09:38:43;;;;;;;1.98;1.08;;;28.40;99.90;;;;;;10417283;28;20189;-83
2022/07/29 09:44:05;;;;;;;3.63;1.33;;;28.10;99.90;;;;;;10416857;28;20195;-88
2022/07/29 09:49:27;;;;;;;2.55;1.20;;;28.60;99.90;;;;;;10430834;28;20200;-86
2022/07/29 09:54:48;;;;;;;3.92;0.93;;;28.70;99.90;;;;;;10447386;28;20192;-82
2022/07/29 10:00:16;;;;;;;2.17;1.05;;;28.00;99.90;;;;;;10395934;28;20204;-81
2022/07/29 10:05:40;;;;;;;2.35;0.90;;;27.10;99.90;;;;;;10430484;28;20220;-84
2022/07/29 10:11:18;;;;;;;2.33;1.30;;;27.40;99.90;;;;;;10429838;28;20205;-83
2022/07/29 10:16:40;;;;;;;3.40;2.60;;;28.40;99.90;;;;;;10348411;28;20209;-79
2022/07/29 10:22:06;;;;;;;4.25;1.35;;;28.90;99.90;;;;;;10347931;28;20210;-79
2022/07/29 10:27:27;;;;;;;2.67;1.58;;;29.40;99.90;;;;;;10348908;28;20617;-88
2022/07/29 10:33:09;;;;;;;3.88;2.08;;;;;;;;;;10336305;28;20216;-80
2022/07/29 10:38:38;;;;;;;7.00;3.58;;;;;;;;;;10349741;28;20533;-88
2022/07/29 10:44:15;;;;;;;3.13;2.33;;;31.00;99.90;;;;;;10357243;28;20225;-88
2022/07/29 10:49:54;;;;;;;2.28;0.85;;;31.10;99.90;;;;;;10343231;28;20198;-88
2022/07/29 10:55:33;;;;;;;5.05;2.00;;;31.00;99.90;;;;;;10344728;28;20246;-83
2022/07/29 11:00:54;;;;;;;2.30;1.20;;;31.20;99.90;;;;;;10345179;28;20202;-83
2022/07/29 11:06:16;;;;;;;3.90;2.08;;;30.30;99.90;;;;;;10375046;28;20486;-90
2022/07/29 11:11:40;;;;;;;3.75;1.52;;;29.00;99.90;;;;;;10347472;28;20239;-90
2022/07/29 11:17:06;;;;;;;3.35;1.75;;;28.10;99.90;;;;;;10409368;28;20258;-86
2022/07/29 11:22:35;;;;;;;2.65;1.17;;;27.70;99.90;;;;;;10418037;28;20208;-88
2022/07/29 11:28:13;;;;;;;3.15;1.02;;;27.50;99.90;;;;;;10438572;28;20469;-91
2022/07/29 11:33:35;;;;;;;1.02;0.80;;;27.30;99.90;;;;;;10436741;28;20246;-84
2022/07/29 11:39:25;;;;;;;2.38;1.65;;;27.00;99.90;;;;;;10422035;28;20205;-90
2022/07/29 11:45:06;;;;;;;3.55;1.20;;;26.70;99.90;;;;;;10435856;28;20220;-89
2022/07/29 11:50:30;;;;;;;5.50;1.00;;;27.30;99.90;;;;;;10422021;28;20230;-87
2022/07/29 11:55:56;;;;;;;1.65;1.17;;;27.40;99.90;;;;;;10431333;28;20219;-81
2022/07/29 12:01:18;;;;;;;1.60;0.85;;;27.30;99.90;;;;;;10465521;28;20207;-82
2022/07/29 12:06:39;;;;;;;1.77;0.95;;;27.10;99.90;;;;;;10420039;28;20227;-84
2022/07/29 12:12:01;;;;;;;2.15;1.50;;;26.40;99.90;;;;;;10434240;28;20224;-83
2022/07/29 12:17:29;;;;;;;2.40;1.05;;;26.60;99.90;;;;;;10419766;28;20247;-81
2022/07/29 12:22:53;;;;;;;0.70;0.70;;;26.90;99.90;;;;;;10436895;28;20222;-80
2022/07/29 12:28:21;;;;;;;3.42;0.80;;;26.60;99.90;;;;;;10433745;28;20228;-80
2022/07/29 12:33:42;;;;;;;3.33;1.10;;;26.40;99.90;;;;;;10418923;28;20208;-82
2022/07/29 12:39:04;;;;;;;1.10;1.00;;;26.70;99.90;;;;;;10418337;28;20304;-80
2022/07/29 12:44:54;;;;;;;1.88;0.90;;;27.10;99.90;;;;;;10418189;28;20271;-83
2022/07/29 12:50:58;;;;;;;1.58;0.63;;;26.70;99.90;;;;;;10432044;28;20217;-89
2022/07/29 12:56:19;;;;;;;5.65;2.10;;;26.10;99.90;;;;;;10448314;28;20192;-87
2022/07/29 13:01:53;;;;;;;1.75;0.80;;;26.10;99.90;;;;;;10442148;28;20199;-82
2022/07/29 13:07:25;;;;;;;1.77;0.65;;;25.90;99.90;;;;;;10430948;28;20235;-88
2022/07/29 13:13:10;;;;;;;2.92;0.77;;;25.50;99.90;;;;;;10430991;28;20256;-83
2022/07/29 13:18:35;;;;;;;4.88;2.45;;;25.50;99.90;;;;;;10431698;28;20193;-89
2022/07/29 13:23:57;;;;;;;3.63;2.65;;;25.90;99.90;;;;;;10429030;28;20227;-86
2022/07/29 13:29:18;;;;;;;2.67;2.00;;;26.00;99.90;;;;;;10429799;28;20251;-85
2022/07/29 13:34:40;;;;;;;6.55;2.30;;;26.10;99.90;;;;;;10439017;28;20243;-87
2022/07/29 13:40:04;;;;;;;3.83;1.50;;;26.50;99.90;;;;;;10420776;28;20219;-84
2022/07/29 13:45:26;;;;;;;1.52;0.90;;;26.40;99.90;;;;;;10433360;28;20309;-90
2022/07/29 13:50:47;;;;;;;2.13;0.95;;;26.00;99.90;;;;;;10431970;28;20255;-88
2022/07/29 13:56:09;;;;;;;3.83;0.85;;;25.80;99.90;;;;;;10432353;28;20306;-84
2022/07/29 14:01:31;;;;;;;2.88;1.05;;;25.90;99.90;;;;;;10428066;28;20236;-84
2022/07/29 14:06:52;;;;;;;3.72;2.00;;;25.80;99.90;;;;;;10416903;28;20278;-83
2022/07/29 14:12:13;;;;;;;1.70;1.17;;;25.80;99.90;;;;;;10422136;28;20611;-89
2022/07/29 14:17:35;;;;;;;2.30;1.10;;;25.90;99.90;;;;;;10432941;28;20214;-86
2022/07/29 14:22:56;;;;;;;1.23;0.90;;;26.00;99.90;;;;;;10469069;28;20235;-94
2022/07/29 14:28:18;;;;;;;2.25;1.00;;;26.10;99.90;;;;;;10476197;28;20223;-80
2022/07/29 14:38:59;;;;;;;2.70;1.42;;;26.00;99.90;;;;;;10452696;28;20200;-80
2022/07/29 14:44:22;;;;;;;1.42;0.93;;;25.70;99.90;;;;;;10453928;28;20542;-80
2022/07/29 14:49:43;;;;;;;0.77;0.70;;;25.40;99.90;;;;;;10454325;28;20196;-79
2022/07/29 14:55:05;;;;;;;3.30;1.67;;;25.20;99.90;;;;;;10481751;28;20275;-95
2022/07/29 15:00:27;;;;;;;4.25;1.55;;;25.10;99.90;;;;;;10477285;28;20208;-90
2022/07/29 15:05:48;;;;;;;1.70;1.52;;;24.80;99.90;;;;;;10476562;28;20219;-82
2022/07/29 15:11:09;;;;;;;2.30;1.15;;;24.70;99.90;;;;;;10465736;28;20649;-80
2022/07/29 15:16:35;;;;;;;4.28;2.05;;;24.50;99.90;;;;;;10450297;28;20232;-85
2022/07/29 15:21:56;;;;;;;1.95;1.15;;;24.40;99.90;;;;;;10480413;28;20408;-89
2022/07/29 15:27:19;;;;;;;2.22;1.55;;;24.60;99.90;;;;;;10469935;28;20215;-85
2022/07/29 15:32:40;;;;;;;3.15;1.15;;;24.80;99.90;;;;;;10481965;28;20347;-88
2022/07/29 15:38:02;;;;;;;1.65;0.73;;;24.60;99.90;;;;;;10482185;28;20315;-90
2022/07/29 15:43:24;;;;;;;2.50;1.27;;;24.50;99.90;;;;;;10482617;28;20202;-91
2022/07/29 15:48:46;;;;;;;1.27;0.90;;;24.30;99.90;;;;;;10467307;28;20223;-81
2022/07/29 15:54:07;;;;;;;1.33;0.80;;;24.20;99.90;;;;;;10495593;28;20279;-92
2022/07/29 15:59:28;;;;;;;1.42;0.70;;;23.90;99.90;;;;;;10440868;28;20351;-82
2022/07/29 16:04:50;;;;;;;1.27;0.80;;;23.70;99.90;;;;;;10508015;28;20403;-89
2022/07/29 16:10:11;;;;;;;2.88;0.95;;;23.30;99.90;;;;;;10466674;28;20326;-84
2022/07/29 16:15:33;;;;;;;5.53;1.00;;;23.30;99.90;;;;;;10482149;28;20254;-87
2022/07/29 16:20:54;;;;;;;0.98;0.93;;;23.20;99.90;;;;;;10466570;28;20495;-90
2022/07/29 16:26:16;;;;;;;3.17;1.05;;;23.20;99.90;;;;;;10466280;28;20306;-89
2022/07/29 16:31:37;;;;;;;2.17;1.30;;;23.20;99.90;;;;;;10480152;28;20191;-90
2022/07/29 16:36:59;;;;;;;1.15;0.85;;;23.30;99.90;;;;;;10480063;28;20200;-91
2022/07/29 16:42:20;;;;;;;1.80;1.05;;;23.30;99.90;;;;;;10479282;28;20262;-91
2022/07/29 16:47:57;;;;;;;2.83;1.33;;;23.10;99.90;;;;;;10465054;28;20242;-90
2022/07/29 16:53:20;;;;;;;1.10;0.98;;;23.00;99.90;;;;;;10478946;28;20203;-92
2022/07/29 16:58:41;;;;;;;1.00;0.90;;;22.90;99.90;;;;;;10431378;28;20279;-88
2022/07/29 17:04:06;;;;;;;1.73;0.98;;;22.70;99.90;;;;;;10457007;28;20262;-90
2022/07/29 17:09:27;;;;;;;1.13;1.00;;;22.60;99.90;;;;;;10464427;28;20595;-89
2022/07/29 17:14:49;;;;;;;1.83;1.38;;;;;;;;;;10469937;28;20230;-92
2022/07/29 17:20:10;;;;;;;1.38;1.02;;;22.40;1.00;;;;;;10478490;28;20195;-80
2022/07/29 17:25:32;;;;;;;2.03;0.80;;;22.00;99.90;;;;;;10478650;28;20396;-80
2022/07/29 17:30:55;;;;;;;5.05;1.13;;;21.90;99.90;;;;;;10496269;28;20360;-80
2022/07/29 17:36:23;;;;;;;2.20;1.35;;;21.80;99.90;;;;;;10482618;28;20219;-90
2022/07/29 17:41:45;;;;;;;3.22;1.30;;;21.50;99.90;;;;;;10463446;28;20204;-80
2022/07/29 17:47:07;;;;;;;2.05;1.13;;;21.30;99.90;;;;;;10463241;28;20235;-88
2022/07/29 17:52:29;;;;;;;1.58;1.10;;;21.20;99.90;;;;;;10477097;28;20187;-89
2022/07/29 17:57:50;;;;;;;4.35;1.33;;;21.10;99.90;;;;;;10485782;28;20486;-81
2022/07/29 18:03:11;;;;;;;2.08;1.10;;;21.00;1.00;;;;;;10494555;28;20449;-84
2022/07/29 18:08:33;;;;;;;2.92;1.50;;;20.70;1.00;;;;;;10463046;28;20219;-85
2022/07/29 18:13:55;;;;;;;3.80;1.60;;;20.60;1.00;;;;;;10476550;28;20251;-80
2022/07/29 18:19:16;;;;;;;2.47;1.50;;;20.40;1.00;;;;;;10436255;28;20192;-79
2022/07/29 18:24:37;;;;;;;2.15;0.88;;;20.20;1.00;;;;;;10407033;28;20199;-84
2022/07/29 18:29:59;;;;;;;0.88;0.80;;;20.10;99.90;;;;;;10435396;28;20235;-82
2022/07/29 18:35:20;;;;;;;1.73;1.02;;;20.00;1.00;;;;;;10437519;28;20292;-89
2022/07/29 18:40:41;;;;;;;3.17;1.60;;;19.80;1.00;;;;;;10435782;28;20515;-87
2022/07/29 18:46:05;;;;;;;2.78;1.17;;;19.70;1.00;;;;;;10421007;28;20228;-89
2022/07/29 18:51:26;;;;;;;2.28;1.20;;;19.50;99.90;;;;;;10434861;28;20212;-81
2022/07/29 18:56:48;;;;;;;3.20;1.27;;;19.40;1.00;;;;;;10453667;28;20275;-80
2022/07/29 19:02:09;;;;;;;2.03;1.30;;;19.20;1.00;;;;;;10478609;28;20271;-81
2022/07/29 19:07:31;;;;;;;2.22;1.60;;;19.10;99.90;;;;;;10482787;28;20416;-84
2022/07/29 19:12:53;;;;;;;4.40;2.28;;;19.00;1.00;;;;;;10496575;28;20227;-80
2022/07/29 19:18:14;;;;;;;2.67;1.70;;;19.00;99.90;;;;;;10482974;28;20393;-81
2022/07/29 19:23:36;;;;;;;2.38;1.80;;;18.90;1.00;;;;;;10468339;28;20250;-91
2022/07/29 19:28:57;;;;;;;2.42;1.85;;;18.70;1.00;;;;;;10482440;28;20233;-90
2022/07/29 19:34:19;;;;;;;2.35;1.42;;;18.50;1.00;;;;;;10483602;28;20200;-84
2022/07/29 19:39:40;;;;;;;4.57;1.75;;;18.50;1.00;;;;;;10481972;28;20203;-85
2022/07/29 19:45:02;;;;;;;3.65;1.40;;;18.30;1.00;;;;;;10467961;28;20270;-84
2022/07/29 19:50:24;;;;;;;3.60;1.73;;;18.20;1.00;;;;;;10501198;28;20445;-83
2022/07/29 19:55:46;;;;;;;2.42;1.77;;;18.20;99.90;;;;;;10482232;28;20223;-86
2022/07/29 20:01:07;;;;;;;1.75;1.40;;;18.10;99.90;;;;;;10467227;28;20242;-91
2022/07/29 20:06:29;;;;;;;2.83;1.65;;;18.00;1.00;;;;;;10497702;28;20250;-88
2022/07/29 20:11:50;;;;;;;2.40;1.52;;;17.90;1.00;;;;;;10481057;28;20228;-89
2022/07/29 20:17:11;;;;;;;3.08;1.77;;;17.80;1.00;;;;;;10460970;28;20204;-89
2022/07/29 20:22:33;;;;;;;3.97;1.67;;;17.70;90.50;;;;;;10481237;28;20194;-89
2022/07/29 20:27:58;;;;;;;3.83;1.88;;;17.60;99.90;;;;;;10499822;28;20422;-89
2022/07/29 20:33:19;;;;;;;2.03;1.45;;;17.50;99.90;;;;;;10466337;28;20195;-89
2022/07/29 20:51:40;;;;;;;2.58;1.40;;;17.40;99.90;;;;;;10480394;28;20199;-84
2022/07/29 20:57:01;;;;;;;2.53;1.15;;;17.30;1.00;;;;;;10478821;28;20275;-89
2022/07/29 21:02:23;;;;;;;2.45;1.20;;;17.20;1.00;;;;;;10464786;28;20445;-88
2022/07/29 21:07:44;;;;;;;1.92;1.00;;;17.20;1.00;;;;;;10478892;28;20277;-86
2022/07/29 21:13:06;;;;;;;2.58;1.52;;;17.10;1.00;;;;;;10494887;28;20243;-88
2022/07/29 21:18:31;;;;;;;1.45;1.17;;;17.10;1.00;;;;;;10437707;28;20222;-92
2022/07/29 21:23:53;;;;;;;4.72;1.52;;;17.00;1.00;;;;;;10437411;28;20204;-89
2022/07/29 21:29:14;;;;;;;1.58;1.27;;;16.90;1.00;;;;;;10475955;28;20222;-82
2022/07/29 21:34:35;;;;;;;2.28;1.50;;;16.90;1.00;;;;;;10475931;28;20192;-92
2022/07/29 21:39:57;;;;;;;2.38;1.83;;;16.90;1.00;;;;;;10437392;28;20191;-91
2022/07/29 21:45:18;;;;;;;2.58;2.03;;;16.80;1.00;;;;;;10464985;28;20206;-92
2022/07/29 21:50:39;;;;;;;3.45;2.03;;;16.70;1.00;;;;;;10436709;28;20282;-93
2022/07/29 21:56:01;;;;;;;3.50;1.42;;;16.70;1.00;;;;;;10449686;28;20214;-91
2022/07/29 22:01:23;;;;;;;2.20;1.55;;;16.70;1.00;;;;;;10477429;28;20344;-91
2022/07/29 22:06:44;;;;;;;2.17;1.48;;;16.70;1.00;;;;;;10463777;28;20222;-90
2022/07/29 22:12:05;;;;;;;2.42;1.75;;;16.70;1.00;;;;;;10479971;28;20238;-91
2022/07/29 22:17:27;;;;;;;1.13;1.00;;;16.70;1.00;;;;;;10472673;28;20206;-91
2022/07/29 22:22:49;;;;;;;2.08;1.30;;;16.70;1.00;;;;;;10463114;28;20203;-92
2022/07/29 22:28:10;;;;;;;2.72;1.80;;;16.70;1.00;;;;;;10462888;28;20257;-86
2022/07/29 22:33:31;;;;;;;2.15;1.63;;;16.60;1.00;;;;;;10476745;28;20279;-90
2022/07/29 22:38:53;;;;;;;1.48;1.20;;;16.70;1.00;;;;;;10467816;28;20210;-91
2022/07/29 22:44:14;;;;;;;1.90;1.25;;;16.70;1.00;;;;;;10503712;28;20493;-85
2022/07/29 22:49:35;;;;;;;2.70;1.33;;;16.70;1.00;;;;;;10469689;28;20235;-87
2022/07/29 22:54:56;;;;;;;2.15;1.50;;;16.70;1.00;;;;;;10485078;28;20191;-84
2022/07/29 23:00:18;;;;;;;2.00;1.35;;;16.60;1.00;;;;;;10469423;28;20237;-88
2022/07/29 23:05:39;;;;;;;3.35;1.45;;;16.60;1.00;;;;;;10469167;28;20271;-90
2022/07/29 23:11:00;;;;;;;1.45;1.27;;;16.50;1.00;;;;;;10474387;28;20207;-84
2022/07/29 23:16:22;;;;;;;1.30;1.20;;;16.50;1.00;;;;;;10497431;28;20258;-84
2022/07/29 23:21:43;;;;;;;1.92;1.40;;;16.40;1.00;;;;;;10484994;28;20195;-91
2022/07/29 23:27:04;;;;;;;2.22;1.00;;;16.40;1.00;;;;;;10497386;28;20226;-90
2022/07/29 23:32:26;;;;;;;1.70;1.30;;;16.40;1.00;;;;;;10483578;28;20198;-90
2022/07/29 23:37:47;;;;;;;3.78;1.13;;;16.40;1.00;;;;;;10496839;28;20201;-88
2022/07/29 23:43:09;;;;;;;2.13;1.20;;;16.30;1.00;;;;;;10482276;28;20194;-88
2022/07/29 23:48:30;;;;;;;2.80;1.20;;;16.30;1.00;;;;;;10480677;28;20227;-86
2022/07/29 23:53:51;;;;;;;2.45;1.10;;;16.30;1.00;;;;;;10467737;28;20210;-87
2022/07/29 23:59:14;;;;;;;4.32;1.35;;;16.20;1.00;;;;;;10467126;28;20385;-87
